sensor_id;sensor_type;location;lat;lon;timestamp;P1;durP1;ratioP1;P2;durP2;ratioP2
23670;SDS011;12012;51.998;7.614;2022-10-23T00:01:54;13.27;;;8.98;;
23670;SDS011;12012;51.998;7.614;2022-10-23T00:04:20;12.00;;;9.77;;
23670;SDS011;12012;51.998;7.614;2022-10-23T00:06:47;11.82;;;8.45;;
23670;SDS011;12012;51.998;7.614;2022-10-23T00:09:14;13.35;;;8.48;;
23670;SDS011;12012;51.998;7.614;2022-10-23T00:11:42;12.20;;;8.40;;
23670;SDS011;12012;51.998;7.614;2022-10-23T00:14:15;11.15;;;8.30;;
23670;SDS011;12012;51.998;7.614;2022-10-23T00:16:46;11.90;;;8.52;;
23670;SDS011;12012;51.998;7.614;2022-10-23T00:19:11;9.88;;;8.15;;
23670;SDS011;12012;51.998;7.614;2022-10-23T00:21:37;11.07;;;8.32;;
23670;SDS011;12012;51.998;7.614;2022-10-23T00:24:03;10.93;;;8.65;;
23670;SDS011;12012;51.998;7.614;2022-10-23T00:26:29;8.38;;;7.43;;
23670;SDS011;12012;51.998;7.614;2022-10-23T00:28:55;13.40;;;8.18;;
23670;SDS011;12012;51.998;7.614;2022-10-23T00:31:21;15.95;;;9.70;;
23670;SDS011;12012;51.998;7.614;2022-10-23T00:33:48;14.82;;;8.77;;
23670;SDS011;12012;51.998;7.614;2022-10-23T00:36:14;11.43;;;8.57;;
23670;SDS011;12012;51.998;7.614;2022-10-23T00:38:42;11.77;;;9.18;;
23670;SDS011;12012;51.998;7.614;2022-10-23T00:41:08;13.82;;;10.63;;
23670;SDS011;12012;51.998;7.614;2022-10-23T00:43:53;10.80;;;8.20;;
23670;SDS011;12012;51.998;7.614;2022-10-23T00:46:19;9.10;;;7.80;;
23670;SDS011;12012;51.998;7.614;2022-10-23T00:48:44;10.82;;;8.23;;
23670;SDS011;12012;51.998;7.614;2022-10-23T00:51:10;10.27;;;7.05;;
23670;SDS011;12012;51.998;7.614;2022-10-23T00:53:35;10.23;;;7.70;;
23670;SDS011;12012;51.998;7.614;2022-10-23T00:56:02;12.55;;;8.50;;
23670;SDS011;12012;51.998;7.614;2022-10-23T00:58:27;11.02;;;7.53;;
23670;SDS011;12012;51.998;7.614;2022-10-23T01:00:54;10.98;;;7.90;;
23670;SDS011;12012;51.998;7.614;2022-10-23T01:03:22;10.65;;;7.30;;
23670;SDS011;12012;51.998;7.614;2022-10-23T01:11:16;9.77;;;7.57;;
23670;SDS011;12012;51.998;7.614;2022-10-23T01:14:00;13.32;;;9.27;;
23670;SDS011;12012;51.998;7.614;2022-10-23T01:19:25;12.23;;;8.98;;
23670;SDS011;12012;51.998;7.614;2022-10-23T01:22:12;11.68;;;7.97;;
23670;SDS011;12012;51.998;7.614;2022-10-23T01:25:00;10.93;;;7.50;;
23670;SDS011;12012;51.998;7.614;2022-10-23T01:27:38;11.50;;;7.43;;
23670;SDS011;12012;51.998;7.614;2022-10-23T01:30:10;11.57;;;7.60;;
23670;SDS011;12012;51.998;7.614;2022-10-23T01:32:41;9.50;;;7.07;;
23670;SDS011;12012;51.998;7.614;2022-10-23T01:37:46;10.55;;;8.38;;
23670;SDS011;12012;51.998;7.614;2022-10-23T01:40:22;9.85;;;6.97;;
23670;SDS011;12012;51.998;7.614;2022-10-23T01:42:57;8.82;;;7.15;;
23670;SDS011;12012;51.998;7.614;2022-10-23T01:45:31;10.13;;;7.45;;
23670;SDS011;12012;51.998;7.614;2022-10-23T01:48:08;9.20;;;7.30;;
23670;SDS011;12012;51.998;7.614;2022-10-23T01:50:37;9.00;;;6.97;;
23670;SDS011;12012;51.998;7.614;2022-10-23T01:53:06;9.73;;;7.25;;
23670;SDS011;12012;51.998;7.614;2022-10-23T01:55:32;9.88;;;7.85;;
23670;SDS011;12012;51.998;7.614;2022-10-23T01:57:58;8.63;;;6.35;;
23670;SDS011;12012;51.998;7.614;2022-10-23T02:00:26;10.65;;;7.13;;
23670;SDS011;12012;51.998;7.614;2022-10-23T02:02:52;8.85;;;6.10;;
23670;SDS011;12012;51.998;7.614;2022-10-23T02:05:21;8.10;;;6.20;;
23670;SDS011;12012;51.998;7.614;2022-10-23T02:07:50;9.68;;;7.78;;
23670;SDS011;12012;51.998;7.614;2022-10-23T02:10:17;7.97;;;6.47;;
23670;SDS011;12012;51.998;7.614;2022-10-23T02:12:55;8.75;;;7.50;;
23670;SDS011;12012;51.998;7.614;2022-10-23T02:15:31;10.93;;;7.47;;
23670;SDS011;12012;51.998;7.614;2022-10-23T02:18:06;9.52;;;7.60;;
23670;SDS011;12012;51.998;7.614;2022-10-23T02:20:41;11.68;;;8.02;;
23670;SDS011;12012;51.998;7.614;2022-10-23T02:25:41;8.02;;;6.40;;
23670;SDS011;12012;51.998;7.614;2022-10-23T02:28:24;8.60;;;6.95;;
23670;SDS011;12012;51.998;7.614;2022-10-23T02:30:53;7.70;;;6.28;;
23670;SDS011;12012;51.998;7.614;2022-10-23T02:33:21;7.50;;;6.03;;
23670;SDS011;12012;51.998;7.614;2022-10-23T02:35:50;7.30;;;6.07;;
23670;SDS011;12012;51.998;7.614;2022-10-23T02:38:33;8.90;;;7.07;;
23670;SDS011;12012;51.998;7.614;2022-10-23T02:49:05;9.85;;;6.57;;
23670;SDS011;12012;51.998;7.614;2022-10-23T02:51:43;7.35;;;6.15;;
23670;SDS011;12012;51.998;7.614;2022-10-23T02:57:22;11.23;;;7.15;;
23670;SDS011;12012;51.998;7.614;2022-10-23T03:02:37;7.72;;;6.45;;
23670;SDS011;12012;51.998;7.614;2022-10-23T03:05:08;7.88;;;6.50;;
23670;SDS011;12012;51.998;7.614;2022-10-23T03:07:37;11.32;;;8.85;;
23670;SDS011;12012;51.998;7.614;2022-10-23T03:10:04;8.18;;;6.22;;
23670;SDS011;12012;51.998;7.614;2022-10-23T03:12:30;7.78;;;6.60;;
23670;SDS011;12012;51.998;7.614;2022-10-23T03:14:55;13.10;;;8.88;;
23670;SDS011;12012;51.998;7.614;2022-10-23T03:17:21;10.77;;;7.38;;
23670;SDS011;12012;51.998;7.614;2022-10-23T03:19:46;7.68;;;6.03;;
23670;SDS011;12012;51.998;7.614;2022-10-23T03:22:12;10.10;;;6.75;;
23670;SDS011;12012;51.998;7.614;2022-10-23T03:24:37;9.15;;;6.50;;
23670;SDS011;12012;51.998;7.614;2022-10-23T03:27:03;10.00;;;7.10;;
23670;SDS011;12012;51.998;7.614;2022-10-23T03:29:28;7.40;;;5.88;;
23670;SDS011;12012;51.998;7.614;2022-10-23T03:31:54;8.05;;;6.82;;
23670;SDS011;12012;51.998;7.614;2022-10-23T03:34:20;9.35;;;6.70;;
23670;SDS011;12012;51.998;7.614;2022-10-23T03:36:45;6.88;;;5.95;;
23670;SDS011;12012;51.998;7.614;2022-10-23T03:39:11;7.82;;;6.30;;
23670;SDS011;12012;51.998;7.614;2022-10-23T03:41:37;8.85;;;6.30;;
23670;SDS011;12012;51.998;7.614;2022-10-23T03:44:02;7.50;;;5.45;;
23670;SDS011;12012;51.998;7.614;2022-10-23T03:46:28;10.63;;;7.65;;
23670;SDS011;12012;51.998;7.614;2022-10-23T03:48:54;8.00;;;6.10;;
23670;SDS011;12012;51.998;7.614;2022-10-23T03:51:22;7.78;;;5.88;;
23670;SDS011;12012;51.998;7.614;2022-10-23T03:53:47;7.57;;;6.32;;
23670;SDS011;12012;51.998;7.614;2022-10-23T03:56:13;10.18;;;7.50;;
23670;SDS011;12012;51.998;7.614;2022-10-23T03:58:38;9.43;;;7.47;;
23670;SDS011;12012;51.998;7.614;2022-10-23T04:01:04;10.70;;;8.30;;
23670;SDS011;12012;51.998;7.614;2022-10-23T04:03:30;9.85;;;6.00;;
23670;SDS011;12012;51.998;7.614;2022-10-23T04:05:55;9.75;;;5.72;;
23670;SDS011;12012;51.998;7.614;2022-10-23T04:08:21;9.40;;;5.63;;
23670;SDS011;12012;51.998;7.614;2022-10-23T04:10:46;6.47;;;5.28;;
23670;SDS011;12012;51.998;7.614;2022-10-23T04:13:12;13.07;;;8.10;;
23670;SDS011;12012;51.998;7.614;2022-10-23T04:15:37;11.65;;;6.68;;
23670;SDS011;12012;51.998;7.614;2022-10-23T04:18:03;9.65;;;6.65;;
23670;SDS011;12012;51.998;7.614;2022-10-23T04:20:28;7.32;;;5.60;;
23670;SDS011;12012;51.998;7.614;2022-10-23T04:22:54;7.88;;;5.97;;
23670;SDS011;12012;51.998;7.614;2022-10-23T04:25:20;6.13;;;5.45;;
23670;SDS011;12012;51.998;7.614;2022-10-23T04:27:45;11.73;;;7.65;;
23670;SDS011;12012;51.998;7.614;2022-10-23T04:30:11;10.00;;;7.18;;
23670;SDS011;12012;51.998;7.614;2022-10-23T04:32:37;11.57;;;5.78;;
23670;SDS011;12012;51.998;7.614;2022-10-23T04:35:02;11.27;;;7.40;;
23670;SDS011;12012;51.998;7.614;2022-10-23T04:37:28;7.80;;;6.38;;
23670;SDS011;12012;51.998;7.614;2022-10-23T04:39:53;8.43;;;5.82;;
23670;SDS011;12012;51.998;7.614;2022-10-23T04:42:19;8.63;;;6.60;;
23670;SDS011;12012;51.998;7.614;2022-10-23T04:44:44;8.25;;;5.30;;
23670;SDS011;12012;51.998;7.614;2022-10-23T04:47:10;8.25;;;5.25;;
23670;SDS011;12012;51.998;7.614;2022-10-23T04:49:36;8.40;;;5.70;;
23670;SDS011;12012;51.998;7.614;2022-10-23T04:52:01;8.10;;;6.07;;
23670;SDS011;12012;51.998;7.614;2022-10-23T04:54:27;7.20;;;5.78;;
23670;SDS011;12012;51.998;7.614;2022-10-23T04:56:52;7.03;;;6.05;;
23670;SDS011;12012;51.998;7.614;2022-10-23T04:59:18;7.22;;;6.30;;
23670;SDS011;12012;51.998;7.614;2022-10-23T05:01:43;7.53;;;6.65;;
23670;SDS011;12012;51.998;7.614;2022-10-23T05:04:09;6.60;;;5.47;;
23670;SDS011;12012;51.998;7.614;2022-10-23T05:06:35;9.30;;;7.38;;
23670;SDS011;12012;51.998;7.614;2022-10-23T05:09:00;7.13;;;5.43;;
23670;SDS011;12012;51.998;7.614;2022-10-23T05:11:26;7.53;;;5.82;;
23670;SDS011;12012;51.998;7.614;2022-10-23T05:13:51;8.00;;;6.10;;
23670;SDS011;12012;51.998;7.614;2022-10-23T05:16:27;7.85;;;6.32;;
23670;SDS011;12012;51.998;7.614;2022-10-23T05:19:01;10.73;;;7.40;;
23670;SDS011;12012;51.998;7.614;2022-10-23T05:21:27;8.93;;;6.53;;
23670;SDS011;12012;51.998;7.614;2022-10-23T05:23:55;10.70;;;7.80;;
23670;SDS011;12012;51.998;7.614;2022-10-23T05:26:21;6.50;;;5.78;;
23670;SDS011;12012;51.998;7.614;2022-10-23T05:28:47;8.27;;;6.47;;
23670;SDS011;12012;51.998;7.614;2022-10-23T05:31:13;13.82;;;8.90;;
23670;SDS011;12012;51.998;7.614;2022-10-23T05:33:40;6.28;;;5.65;;
23670;SDS011;12012;51.998;7.614;2022-10-23T05:36:06;7.80;;;5.60;;
23670;SDS011;12012;51.998;7.614;2022-10-23T05:38:32;8.65;;;6.07;;
23670;SDS011;12012;51.998;7.614;2022-10-23T05:40:59;7.15;;;6.15;;
23670;SDS011;12012;51.998;7.614;2022-10-23T05:43:25;9.95;;;6.50;;
23670;SDS011;12012;51.998;7.614;2022-10-23T05:45:55;8.98;;;7.28;;
23670;SDS011;12012;51.998;7.614;2022-10-23T05:48:21;11.13;;;6.55;;
23670;SDS011;12012;51.998;7.614;2022-10-23T05:50:46;7.85;;;6.40;;
23670;SDS011;12012;51.998;7.614;2022-10-23T05:53:12;7.32;;;6.00;;
23670;SDS011;12012;51.998;7.614;2022-10-23T05:55:38;8.45;;;6.57;;
23670;SDS011;12012;51.998;7.614;2022-10-23T05:58:03;6.18;;;5.57;;
23670;SDS011;12012;51.998;7.614;2022-10-23T06:00:29;8.45;;;7.15;;
23670;SDS011;12012;51.998;7.614;2022-10-23T06:02:57;6.70;;;6.00;;
23670;SDS011;12012;51.998;7.614;2022-10-23T06:05:24;7.05;;;6.22;;
23670;SDS011;12012;51.998;7.614;2022-10-23T06:07:49;8.65;;;6.32;;
23670;SDS011;12012;51.998;7.614;2022-10-23T06:10:15;8.52;;;6.25;;
23670;SDS011;12012;51.998;7.614;2022-10-23T06:12:40;9.25;;;7.95;;
23670;SDS011;12012;51.998;7.614;2022-10-23T06:15:06;7.03;;;6.07;;
23670;SDS011;12012;51.998;7.614;2022-10-23T06:17:32;9.35;;;6.88;;
23670;SDS011;12012;51.998;7.614;2022-10-23T06:19:57;8.88;;;7.07;;
23670;SDS011;12012;51.998;7.614;2022-10-23T06:22:26;8.20;;;6.32;;
23670;SDS011;12012;51.998;7.614;2022-10-23T06:24:53;8.02;;;5.93;;
23670;SDS011;12012;51.998;7.614;2022-10-23T06:27:18;8.60;;;6.35;;
23670;SDS011;12012;51.998;7.614;2022-10-23T06:29:44;7.85;;;6.50;;
23670;SDS011;12012;51.998;7.614;2022-10-23T06:32:10;6.63;;;5.40;;
23670;SDS011;12012;51.998;7.614;2022-10-23T06:34:35;6.60;;;5.60;;
23670;SDS011;12012;51.998;7.614;2022-10-23T06:37:01;7.93;;;6.20;;
23670;SDS011;12012;51.998;7.614;2022-10-23T06:39:26;12.10;;;7.68;;
23670;SDS011;12012;51.998;7.614;2022-10-23T06:41:52;6.43;;;5.68;;
23670;SDS011;12012;51.998;7.614;2022-10-23T06:44:18;8.77;;;5.82;;
23670;SDS011;12012;51.998;7.614;2022-10-23T06:46:43;6.43;;;5.03;;
23670;SDS011;12012;51.998;7.614;2022-10-23T06:49:11;6.28;;;5.68;;
23670;SDS011;12012;51.998;7.614;2022-10-23T06:51:38;8.38;;;6.38;;
23670;SDS011;12012;51.998;7.614;2022-10-23T06:54:04;8.90;;;6.78;;
23670;SDS011;12012;51.998;7.614;2022-10-23T06:56:29;9.52;;;6.03;;
23670;SDS011;12012;51.998;7.614;2022-10-23T06:58:55;8.98;;;6.55;;
23670;SDS011;12012;51.998;7.614;2022-10-23T07:01:21;8.63;;;6.32;;
23670;SDS011;12012;51.998;7.614;2022-10-23T07:03:47;9.73;;;6.10;;
23670;SDS011;12012;51.998;7.614;2022-10-23T07:06:12;5.55;;;4.82;;
23670;SDS011;12012;51.998;7.614;2022-10-23T07:08:38;7.10;;;5.57;;
23670;SDS011;12012;51.998;7.614;2022-10-23T07:11:07;6.47;;;5.32;;
23670;SDS011;12012;51.998;7.614;2022-10-23T07:13:35;7.70;;;6.13;;
23670;SDS011;12012;51.998;7.614;2022-10-23T07:16:12;8.18;;;6.15;;
23670;SDS011;12012;51.998;7.614;2022-10-23T07:18:40;7.63;;;5.82;;
23670;SDS011;12012;51.998;7.614;2022-10-23T07:21:07;7.10;;;6.13;;
23670;SDS011;12012;51.998;7.614;2022-10-23T07:23:33;7.80;;;5.95;;
23670;SDS011;12012;51.998;7.614;2022-10-23T07:26:06;7.68;;;6.40;;
23670;SDS011;12012;51.998;7.614;2022-10-23T07:28:39;9.43;;;6.80;;
23670;SDS011;12012;51.998;7.614;2022-10-23T07:31:06;7.57;;;6.28;;
23670;SDS011;12012;51.998;7.614;2022-10-23T07:33:32;10.98;;;6.40;;
23670;SDS011;12012;51.998;7.614;2022-10-23T07:35:58;9.73;;;5.68;;
23670;SDS011;12012;51.998;7.614;2022-10-23T07:38:24;7.40;;;6.35;;
23670;SDS011;12012;51.998;7.614;2022-10-23T07:40:51;7.95;;;6.47;;
23670;SDS011;12012;51.998;7.614;2022-10-23T07:43:17;9.20;;;7.30;;
23670;SDS011;12012;51.998;7.614;2022-10-23T07:45:47;10.43;;;6.72;;
23670;SDS011;12012;51.998;7.614;2022-10-23T07:48:14;8.27;;;6.53;;
23670;SDS011;12012;51.998;7.614;2022-10-23T07:50:40;9.70;;;6.25;;
23670;SDS011;12012;51.998;7.614;2022-10-23T07:53:06;9.70;;;6.78;;
23670;SDS011;12012;51.998;7.614;2022-10-23T07:55:35;7.00;;;6.30;;
23670;SDS011;12012;51.998;7.614;2022-10-23T07:58:00;8.10;;;6.18;;
23670;SDS011;12012;51.998;7.614;2022-10-23T08:00:26;8.38;;;6.15;;
23670;SDS011;12012;51.998;7.614;2022-10-23T08:02:51;6.82;;;6.20;;
23670;SDS011;12012;51.998;7.614;2022-10-23T08:05:18;7.07;;;5.80;;
23670;SDS011;12012;51.998;7.614;2022-10-23T08:07:44;8.18;;;6.82;;
23670;SDS011;12012;51.998;7.614;2022-10-23T08:10:09;8.18;;;5.72;;
23670;SDS011;12012;51.998;7.614;2022-10-23T08:12:36;5.95;;;5.18;;
23670;SDS011;12012;51.998;7.614;2022-10-23T08:15:02;9.30;;;6.20;;
23670;SDS011;12012;51.998;7.614;2022-10-23T08:17:28;5.88;;;4.90;;
23670;SDS011;12012;51.998;7.614;2022-10-23T08:19:54;9.38;;;5.88;;
23670;SDS011;12012;51.998;7.614;2022-10-23T08:22:19;5.43;;;4.43;;
23670;SDS011;12012;51.998;7.614;2022-10-23T08:24:45;6.47;;;4.38;;
23670;SDS011;12012;51.998;7.614;2022-10-23T08:27:10;6.15;;;4.47;;
23670;SDS011;12012;51.998;7.614;2022-10-23T08:29:36;6.90;;;5.25;;
23670;SDS011;12012;51.998;7.614;2022-10-23T08:32:02;6.18;;;4.93;;
23670;SDS011;12012;51.998;7.614;2022-10-23T08:34:27;7.20;;;4.97;;
23670;SDS011;12012;51.998;7.614;2022-10-23T08:36:53;7.43;;;5.38;;
23670;SDS011;12012;51.998;7.614;2022-10-23T08:39:19;8.00;;;5.20;;
23670;SDS011;12012;51.998;7.614;2022-10-23T08:41:48;8.73;;;5.68;;
23670;SDS011;12012;51.998;7.614;2022-10-23T08:44:17;5.05;;;4.55;;
23670;SDS011;12012;51.998;7.614;2022-10-23T08:47:07;6.97;;;4.22;;
23670;SDS011;12012;51.998;7.614;2022-10-23T08:52:30;7.68;;;4.78;;
23670;SDS011;12012;51.998;7.614;2022-10-23T09:00:43;6.65;;;4.45;;
23670;SDS011;12012;51.998;7.614;2022-10-23T09:03:13;7.07;;;5.40;;
23670;SDS011;12012;51.998;7.614;2022-10-23T09:10:59;7.50;;;5.28;;
23670;SDS011;12012;51.998;7.614;2022-10-23T09:19:17;7.75;;;4.85;;
23670;SDS011;12012;51.998;7.614;2022-10-23T09:21:44;7.30;;;4.72;;
23670;SDS011;12012;51.998;7.614;2022-10-23T09:24:14;7.80;;;4.75;;
23670;SDS011;12012;51.998;7.614;2022-10-23T09:26:44;6.15;;;4.68;;
23670;SDS011;12012;51.998;7.614;2022-10-23T09:29:21;6.97;;;4.40;;
23670;SDS011;12012;51.998;7.614;2022-10-23T09:31:57;6.32;;;4.13;;
23670;SDS011;12012;51.998;7.614;2022-10-23T09:34:25;6.53;;;4.22;;
23670;SDS011;12012;51.998;7.614;2022-10-23T09:37:03;7.38;;;4.28;;
23670;SDS011;12012;51.998;7.614;2022-10-23T09:39:44;7.28;;;3.97;;
23670;SDS011;12012;51.998;7.614;2022-10-23T09:42:28;5.28;;;3.80;;
23670;SDS011;12012;51.998;7.614;2022-10-23T09:44:54;5.00;;;3.50;;
23670;SDS011;12012;51.998;7.614;2022-10-23T09:47:22;6.80;;;3.80;;
23670;SDS011;12012;51.998;7.614;2022-10-23T09:49:50;7.65;;;3.72;;
23670;SDS011;12012;51.998;7.614;2022-10-23T09:52:23;5.93;;;3.38;;
23670;SDS011;12012;51.998;7.614;2022-10-23T09:54:58;4.28;;;3.25;;
23670;SDS011;12012;51.998;7.614;2022-10-23T09:57:29;5.82;;;3.10;;
23670;SDS011;12012;51.998;7.614;2022-10-23T10:00:18;4.90;;;3.65;;
23670;SDS011;12012;51.998;7.614;2022-10-23T10:07:57;4.10;;;3.08;;
23670;SDS011;12012;51.998;7.614;2022-10-23T10:10:33;2.83;;;2.20;;
23670;SDS011;12012;51.998;7.614;2022-10-23T10:13:06;8.52;;;3.17;;
23670;SDS011;12012;51.998;7.614;2022-10-23T10:15:43;7.43;;;3.25;;
23670;SDS011;12012;51.998;7.614;2022-10-23T10:20:58;6.85;;;3.17;;
23670;SDS011;12012;51.998;7.614;2022-10-23T10:26:12;5.95;;;3.05;;
23670;SDS011;12012;51.998;7.614;2022-10-23T10:28:57;6.53;;;2.90;;
23670;SDS011;12012;51.998;7.614;2022-10-23T10:34:32;6.22;;;3.00;;
23670;SDS011;12012;51.998;7.614;2022-10-23T10:37:15;6.40;;;2.80;;
23670;SDS011;12012;51.998;7.614;2022-10-23T10:45:37;3.42;;;2.33;;
23670;SDS011;12012;51.998;7.614;2022-10-23T10:51:11;3.63;;;2.30;;
23670;SDS011;12012;51.998;7.614;2022-10-23T10:56:43;8.45;;;3.17;;
23670;SDS011;12012;51.998;7.614;2022-10-23T10:59:13;4.65;;;2.63;;
23670;SDS011;12012;51.998;7.614;2022-10-23T11:04:19;2.70;;;2.25;;
23670;SDS011;12012;51.998;7.614;2022-10-23T11:06:52;5.80;;;2.55;;
23670;SDS011;12012;51.998;7.614;2022-10-23T11:09:20;3.88;;;2.20;;
23670;SDS011;12012;51.998;7.614;2022-10-23T11:11:49;4.93;;;2.35;;
23670;SDS011;12012;51.998;7.614;2022-10-23T11:14:20;4.93;;;2.63;;
23670;SDS011;12012;51.998;7.614;2022-10-23T11:16:48;4.28;;;2.35;;
23670;SDS011;12012;51.998;7.614;2022-10-23T11:19:44;5.32;;;2.75;;
23670;SDS011;12012;51.998;7.614;2022-10-23T11:33:29;6.65;;;3.05;;
23670;SDS011;12012;51.998;7.614;2022-10-23T11:41:48;3.05;;;2.40;;
23670;SDS011;12012;51.998;7.614;2022-10-23T11:44:50;4.15;;;2.90;;
23670;SDS011;12012;51.998;7.614;2022-10-23T11:47:26;3.47;;;2.28;;
23670;SDS011;12012;51.998;7.614;2022-10-23T11:52:33;3.55;;;2.10;;
23670;SDS011;12012;51.998;7.614;2022-10-23T11:55:18;2.88;;;2.33;;
23670;SDS011;12012;51.998;7.614;2022-10-23T12:00:31;4.95;;;2.42;;
23670;SDS011;12012;51.998;7.614;2022-10-23T12:02:58;3.35;;;2.70;;
23670;SDS011;12012;51.998;7.614;2022-10-23T12:05:27;3.95;;;2.83;;
23670;SDS011;12012;51.998;7.614;2022-10-23T12:07:59;3.70;;;2.85;;
23670;SDS011;12012;51.998;7.614;2022-10-23T12:10:28;3.67;;;2.72;;
23670;SDS011;12012;51.998;7.614;2022-10-23T12:12:59;3.47;;;2.70;;
23670;SDS011;12012;51.998;7.614;2022-10-23T12:15:28;3.25;;;2.60;;
23670;SDS011;12012;51.998;7.614;2022-10-23T12:17:54;8.38;;;2.78;;
23670;SDS011;12012;51.998;7.614;2022-10-23T12:23:52;8.07;;;2.60;;
23670;SDS011;12012;51.998;7.614;2022-10-23T12:27:00;4.75;;;2.55;;
23670;SDS011;12012;51.998;7.614;2022-10-23T12:34:52;5.32;;;2.50;;
23670;SDS011;12012;51.998;7.614;2022-10-23T12:40:18;6.72;;;2.40;;
23670;SDS011;12012;51.998;7.614;2022-10-23T12:42:48;3.33;;;2.30;;
23670;SDS011;12012;51.998;7.614;2022-10-23T12:47:50;4.15;;;2.10;;
23670;SDS011;12012;51.998;7.614;2022-10-23T12:50:20;9.07;;;2.38;;
23670;SDS011;12012;51.998;7.614;2022-10-23T12:55:17;4.70;;;2.50;;
23670;SDS011;12012;51.998;7.614;2022-10-23T12:57:43;3.90;;;2.00;;
23670;SDS011;12012;51.998;7.614;2022-10-23T13:00:13;4.75;;;2.10;;
23670;SDS011;12012;51.998;7.614;2022-10-23T13:02:41;5.15;;;2.17;;
23670;SDS011;12012;51.998;7.614;2022-10-23T13:05:08;3.70;;;2.05;;
23670;SDS011;12012;51.998;7.614;2022-10-23T13:07:41;2.53;;;1.85;;
23670;SDS011;12012;51.998;7.614;2022-10-23T13:10:17;6.65;;;2.25;;
23670;SDS011;12012;51.998;7.614;2022-10-23T13:12:48;3.55;;;2.08;;
23670;SDS011;12012;51.998;7.614;2022-10-23T13:15:20;3.78;;;1.90;;
23670;SDS011;12012;51.998;7.614;2022-10-23T13:22:48;3.95;;;1.95;;
23670;SDS011;12012;51.998;7.614;2022-10-23T13:25:20;3.92;;;2.15;;
23670;SDS011;12012;51.998;7.614;2022-10-23T13:28:10;2.92;;;2.03;;
23670;SDS011;12012;51.998;7.614;2022-10-23T13:30:40;6.13;;;2.00;;
23670;SDS011;12012;51.998;7.614;2022-10-23T13:35:40;4.68;;;1.77;;
23670;SDS011;12012;51.998;7.614;2022-10-23T13:38:06;7.95;;;2.00;;
23670;SDS011;12012;51.998;7.614;2022-10-23T13:40:32;5.00;;;1.80;;
23670;SDS011;12012;51.998;7.614;2022-10-23T13:42:58;4.40;;;1.58;;
23670;SDS011;12012;51.998;7.614;2022-10-23T13:45:24;5.72;;;1.70;;
23670;SDS011;12012;51.998;7.614;2022-10-23T13:47:50;3.10;;;1.40;;
23670;SDS011;12012;51.998;7.614;2022-10-23T13:50:16;6.30;;;1.58;;
23670;SDS011;12012;51.998;7.614;2022-10-23T13:52:43;5.97;;;2.10;;
23670;SDS011;12012;51.998;7.614;2022-10-23T13:55:19;2.72;;;1.45;;
23670;SDS011;12012;51.998;7.614;2022-10-23T13:57:47;4.85;;;2.08;;
23670;SDS011;12012;51.998;7.614;2022-10-23T14:00:13;4.05;;;2.03;;
23670;SDS011;12012;51.998;7.614;2022-10-23T14:02:40;3.35;;;1.75;;
23670;SDS011;12012;51.998;7.614;2022-10-23T14:05:05;6.15;;;3.03;;
23670;SDS011;12012;51.998;7.614;2022-10-23T14:07:31;5.35;;;2.30;;
23670;SDS011;12012;51.998;7.614;2022-10-23T14:09:57;3.78;;;2.30;;
23670;SDS011;12012;51.998;7.614;2022-10-23T14:12:22;9.90;;;2.60;;
23670;SDS011;12012;51.998;7.614;2022-10-23T14:14:51;4.68;;;1.80;;
23670;SDS011;12012;51.998;7.614;2022-10-23T14:17:17;7.32;;;2.47;;
23670;SDS011;12012;51.998;7.614;2022-10-23T14:19:44;3.92;;;1.77;;
23670;SDS011;12012;51.998;7.614;2022-10-23T14:22:10;2.67;;;1.70;;
23670;SDS011;12012;51.998;7.614;2022-10-23T14:24:36;5.00;;;1.45;;
23670;SDS011;12012;51.998;7.614;2022-10-23T14:27:02;5.15;;;1.63;;
23670;SDS011;12012;51.998;7.614;2022-10-23T14:29:28;4.90;;;1.83;;
23670;SDS011;12012;51.998;7.614;2022-10-23T14:31:53;2.40;;;1.67;;
23670;SDS011;12012;51.998;7.614;2022-10-23T14:34:19;2.95;;;1.77;;
23670;SDS011;12012;51.998;7.614;2022-10-23T14:36:45;4.45;;;1.80;;
23670;SDS011;12012;51.998;7.614;2022-10-23T14:39:10;7.53;;;1.70;;
23670;SDS011;12012;51.998;7.614;2022-10-23T14:41:36;4.50;;;1.73;;
23670;SDS011;12012;51.998;7.614;2022-10-23T14:44:04;3.38;;;1.70;;
23670;SDS011;12012;51.998;7.614;2022-10-23T14:46:30;1.63;;;1.48;;
23670;SDS011;12012;51.998;7.614;2022-10-23T14:48:56;7.05;;;1.45;;
23670;SDS011;12012;51.998;7.614;2022-10-23T14:53:52;3.35;;;1.58;;
23670;SDS011;12012;51.998;7.614;2022-10-23T14:56:26;2.95;;;1.80;;
23670;SDS011;12012;51.998;7.614;2022-10-23T14:58:53;2.63;;;1.70;;
23670;SDS011;12012;51.998;7.614;2022-10-23T15:01:26;3.50;;;1.58;;
23670;SDS011;12012;51.998;7.614;2022-10-23T15:03:59;2.47;;;1.50;;
23670;SDS011;12012;51.998;7.614;2022-10-23T15:06:25;1.65;;;1.42;;
23670;SDS011;12012;51.998;7.614;2022-10-23T15:08:51;2.35;;;1.50;;
23670;SDS011;12012;51.998;7.614;2022-10-23T15:11:19;2.53;;;1.80;;
23670;SDS011;12012;51.998;7.614;2022-10-23T15:13:45;2.72;;;1.20;;
23670;SDS011;12012;51.998;7.614;2022-10-23T15:16:11;2.20;;;1.75;;
23670;SDS011;12012;51.998;7.614;2022-10-23T15:18:36;1.70;;;1.60;;
23670;SDS011;12012;51.998;7.614;2022-10-23T15:21:02;2.22;;;1.35;;
23670;SDS011;12012;51.998;7.614;2022-10-23T15:23:30;3.58;;;1.90;;
23670;SDS011;12012;51.998;7.614;2022-10-23T15:25:59;2.97;;;1.85;;
23670;SDS011;12012;51.998;7.614;2022-10-23T15:28:26;2.47;;;1.50;;
23670;SDS011;12012;51.998;7.614;2022-10-23T15:30:52;2.28;;;1.73;;
23670;SDS011;12012;51.998;7.614;2022-10-23T15:33:18;2.47;;;1.77;;
23670;SDS011;12012;51.998;7.614;2022-10-23T15:35:44;2.33;;;1.70;;
23670;SDS011;12012;51.998;7.614;2022-10-23T15:38:09;3.95;;;1.73;;
23670;SDS011;12012;51.998;7.614;2022-10-23T15:40:35;3.58;;;1.60;;
23670;SDS011;12012;51.998;7.614;2022-10-23T15:43:00;2.65;;;1.92;;
23670;SDS011;12012;51.998;7.614;2022-10-23T15:45:26;2.70;;;1.83;;
23670;SDS011;12012;51.998;7.614;2022-10-23T15:47:52;2.03;;;1.50;;
23670;SDS011;12012;51.998;7.614;2022-10-23T15:50:17;2.40;;;1.70;;
23670;SDS011;12012;51.998;7.614;2022-10-23T15:52:43;2.75;;;2.00;;
23670;SDS011;12012;51.998;7.614;2022-10-23T15:55:09;3.15;;;2.30;;
23670;SDS011;12012;51.998;7.614;2022-10-23T15:57:37;3.85;;;1.70;;
23670;SDS011;12012;51.998;7.614;2022-10-23T16:00:04;3.65;;;2.10;;
23670;SDS011;12012;51.998;7.614;2022-10-23T16:02:31;6.07;;;2.10;;
23670;SDS011;12012;51.998;7.614;2022-10-23T16:04:56;3.88;;;2.08;;
23670;SDS011;12012;51.998;7.614;2022-10-23T16:07:22;2.50;;;2.08;;
23670;SDS011;12012;51.998;7.614;2022-10-23T16:09:48;5.25;;;2.60;;
23670;SDS011;12012;51.998;7.614;2022-10-23T16:12:13;5.38;;;2.47;;
23670;SDS011;12012;51.998;7.614;2022-10-23T16:14:39;5.32;;;2.28;;
23670;SDS011;12012;51.998;7.614;2022-10-23T16:17:04;3.35;;;2.33;;
23670;SDS011;12012;51.998;7.614;2022-10-23T16:19:31;6.53;;;2.25;;
23670;SDS011;12012;51.998;7.614;2022-10-23T16:21:57;4.95;;;2.70;;
23670;SDS011;12012;51.998;7.614;2022-10-23T16:24:23;4.45;;;2.47;;
23670;SDS011;12012;51.998;7.614;2022-10-23T16:26:48;7.80;;;2.50;;
23670;SDS011;12012;51.998;7.614;2022-10-23T16:29:17;6.03;;;3.35;;
23670;SDS011;12012;51.998;7.614;2022-10-23T16:31:44;8.18;;;3.55;;
23670;SDS011;12012;51.998;7.614;2022-10-23T16:34:09;7.40;;;3.38;;
23670;SDS011;12012;51.998;7.614;2022-10-23T16:36:35;5.78;;;3.80;;
23670;SDS011;12012;51.998;7.614;2022-10-23T16:39:02;6.38;;;3.60;;
23670;SDS011;12012;51.998;7.614;2022-10-23T16:41:29;5.20;;;3.20;;
23670;SDS011;12012;51.998;7.614;2022-10-23T16:43:55;5.97;;;3.60;;
23670;SDS011;12012;51.998;7.614;2022-10-23T16:46:20;7.07;;;3.58;;
23670;SDS011;12012;51.998;7.614;2022-10-23T16:48:47;8.88;;;3.15;;
23670;SDS011;12012;51.998;7.614;2022-10-23T16:51:17;6.97;;;3.38;;
23670;SDS011;12012;51.998;7.614;2022-10-23T16:53:44;7.30;;;3.17;;
23670;SDS011;12012;51.998;7.614;2022-10-23T16:56:11;5.57;;;3.17;;
23670;SDS011;12012;51.998;7.614;2022-10-23T16:58:39;7.05;;;3.20;;